This demonstration page uses our WeatherBlox Daily Observations layout. Learn more.

36.17497, -115.13722

Hourly Observations for February 6, 2016

Temp ( °F °C ) Dew Point ( °F °C ) Humidity (%) Winds ( mph kmh ) Pressure ( in mb ) Visibility ( mi km ) Precip ( " mm )
12:53 am 00:53 Clear 44 6.7 25 -3.9 47 47 NNW 10 17 30.52 1034 10 16.0934 0 0
1:53 am 01:53 Clear 45 7.2 24 -4.4 44 44 NNW 7 11 30.52 1034 10 16.0934 0 0
2:53 am 02:53 Clear 41 5 24 -4.4 51 51 W 5 7 30.53 1034 10 16.0934 0 0
3:53 am 03:53 Clear 42 5.6 24 -4.4 49 49 NNW 9 15 30.53 1034 10 16.0934 0 0
4:53 am 04:53 Clear 39 3.9 24 -4.4 55 55 NNW 7 11 30.53 1034 10 16.0934 0 0
5:53 am 05:53 Clear 37 2.8 24 -4.4 59 59 NW 8 13 30.53 1034 10 16.0934 0 0
6:53 am 06:53 Sunny 39 3.9 24 -4.4 55 55 NNW 3 6 30.53 1034 10 16.0934 0 0
7:53 am 07:53 Sunny 42 5.6 24 -4.4 49 49 NNW 7 11 30.54 1034 10 16.0934 0 0
8:53 am 08:53 Sunny 47 8.3 24 -4.4 41 41 N 8 13 30.54 1034 10 16.0934 0 0
9:53 am 09:53 Sunny 50 10 24 -4.4 36 36 W 5 7 30.54 1034 10 16.0934 0 0
10:53 am 10:53 Sunny 54 12.2 24 -4.4 31 31 Calm 30.52 1033 10 16.0934 0 0
11:53 am 11:53 Sunny 55 12.8 24 -4.4 30 30 Calm 30.48 1032 10 16.0934 0 0
12:53 pm 12:53 Sunny 57 13.9 23 -5 27 27 Calm 30.44 1031 10 16.0934 0 0
1:53 pm 13:53 Sunny 59 15 23 -5 25 25 NE 3 6 30.4 1030 10 16.0934 0 0
2:53 pm 14:53 Sunny 59 15 23 -5 25 25 Calm 30.39 1029 10 16.0934 0 0
3:53 pm 15:53 Sunny 60 15.6 23 -5 24 24 SE 3 6 30.38 1029 10 16.0934 0 0
4:53 pm 16:53 Sunny 60 15.6 23 -5 24 24 ENE 3 6 30.38 1029 10 16.0934 0 0
5:53 pm 17:53 Clear 55 12.8 23 -5 29 29 SE 3 6 30.38 1029 10 16.0934 0 0
6:53 pm 18:53 Clear 54 12.2 24 -4.4 31 31 Calm 30.39 1029 10 16.0934 0 0
7:53 pm 19:53 Clear 52 11.1 25 -3.9 35 35 Calm 30.4 1029 10 16.0934 0 0
8:53 pm 20:53 Clear 49 9.4 26 -3.3 41 41 NE 3 6 30.4 1030 10 16.0934 0 0
9:53 pm 21:53 Clear 51 10.6 24 -4.4 35 35 NNW 10 17 30.4 1029 10 16.0934 0 0
10:53 pm 22:53 Clear 47 8.3 25 -3.9 42 42 WNW 6 9 30.4 1030 10 16.0934 0 0
11:53 pm 23:53 Clear 48 8.9 25 -3.9 41 41 NNW 10 17 30.39 1029 10 16.0934 0 0

Powered by AerisWeather